sensor_id;sensor_type;location;lat;lon;timestamp;P1;durP1;ratioP1;P2;durP2;ratioP2
67514;SDS011;60646;55.802;37.032;2023-08-30T00:00:59;3.03;;;2.33;;
67514;SDS011;60646;55.802;37.032;2023-08-30T00:03:25;7.65;;;2.40;;
67514;SDS011;60646;55.802;37.032;2023-08-30T00:05:51;6.35;;;2.55;;
67514;SDS011;60646;55.802;37.032;2023-08-30T00:08:17;2.85;;;2.38;;
67514;SDS011;60646;55.802;37.032;2023-08-30T00:10:45;2.65;;;2.08;;
67514;SDS011;60646;55.802;37.032;2023-08-30T00:13:11;3.08;;;2.30;;
67514;SDS011;60646;55.802;37.032;2023-08-30T00:15:37;7.40;;;2.53;;
67514;SDS011;60646;55.802;37.032;2023-08-30T00:18:03;2.95;;;2.10;;
67514;SDS011;60646;55.802;37.032;2023-08-30T00:20:29;2.75;;;2.08;;
67514;SDS011;60646;55.802;37.032;2023-08-30T00:22:55;3.22;;;2.00;;
67514;SDS011;60646;55.802;37.032;2023-08-30T00:25:21;2.97;;;2.15;;
67514;SDS011;60646;55.802;37.032;2023-08-30T00:27:46;2.85;;;2.15;;
67514;SDS011;60646;55.802;37.032;2023-08-30T00:30:12;2.40;;;1.90;;
67514;SDS011;60646;55.802;37.032;2023-08-30T00:32:38;3.88;;;2.15;;
67514;SDS011;60646;55.802;37.032;2023-08-30T00:35:04;3.30;;;2.03;;
67514;SDS011;60646;55.802;37.032;2023-08-30T00:37:30;2.80;;;2.10;;
67514;SDS011;60646;55.802;37.032;2023-08-30T00:39:56;2.95;;;2.28;;
67514;SDS011;60646;55.802;37.032;2023-08-30T00:42:22;4.93;;;2.00;;
67514;SDS011;60646;55.802;37.032;2023-08-30T00:44:49;2.40;;;1.73;;
67514;SDS011;60646;55.802;37.032;2023-08-30T00:47:15;3.35;;;1.83;;
67514;SDS011;60646;55.802;37.032;2023-08-30T00:49:41;8.13;;;2.10;;
67514;SDS011;60646;55.802;37.032;2023-08-30T00:52:08;3.10;;;2.10;;
67514;SDS011;60646;55.802;37.032;2023-08-30T00:54:36;6.97;;;2.70;;
67514;SDS011;60646;55.802;37.032;2023-08-30T00:57:03;5.00;;;2.10;;
67514;SDS011;60646;55.802;37.032;2023-08-30T00:59:31;2.80;;;2.00;;
67514;SDS011;60646;55.802;37.032;2023-08-30T01:01:58;2.83;;;1.83;;
67514;SDS011;60646;55.802;37.032;2023-08-30T01:04:44;2.70;;;2.30;;
67514;SDS011;60646;55.802;37.032;2023-08-30T01:07:11;4.43;;;2.33;;
67514;SDS011;60646;55.802;37.032;2023-08-30T01:09:37;2.97;;;2.25;;
67514;SDS011;60646;55.802;37.032;2023-08-30T01:15:02;3.07;;;2.10;;
67514;SDS011;60646;55.802;37.032;2023-08-30T01:17:35;2.50;;;2.15;;
67514;SDS011;60646;55.802;37.032;2023-08-30T01:20:05;2.72;;;2.17;;
67514;SDS011;60646;55.802;37.032;2023-08-30T01:23:17;3.50;;;2.47;;
67514;SDS011;60646;55.802;37.032;2023-08-30T01:28:49;4.30;;;2.22;;
67514;SDS011;60646;55.802;37.032;2023-08-30T01:31:17;3.50;;;2.78;;
67514;SDS011;60646;55.802;37.032;2023-08-30T01:33:44;3.50;;;2.50;;
67514;SDS011;60646;55.802;37.032;2023-08-30T01:36:11;5.88;;;2.45;;
67514;SDS011;60646;55.802;37.032;2023-08-30T01:38:37;4.35;;;2.25;;
67514;SDS011;60646;55.802;37.032;2023-08-30T01:41:04;3.70;;;2.47;;
67514;SDS011;60646;55.802;37.032;2023-08-30T01:43:30;3.40;;;2.45;;
67514;SDS011;60646;55.802;37.032;2023-08-30T01:45:57;2.90;;;2.40;;
67514;SDS011;60646;55.802;37.032;2023-08-30T01:48:26;2.85;;;1.98;;
67514;SDS011;60646;55.802;37.032;2023-08-30T01:50:52;2.75;;;2.10;;
67514;SDS011;60646;55.802;37.032;2023-08-30T01:53:24;2.60;;;1.98;;
67514;SDS011;60646;55.802;37.032;2023-08-30T01:55:51;2.83;;;2.15;;
67514;SDS011;60646;55.802;37.032;2023-08-30T01:58:18;3.72;;;2.60;;
67514;SDS011;60646;55.802;37.032;2023-08-30T02:00:44;3.33;;;2.28;;
67514;SDS011;60646;55.802;37.032;2023-08-30T02:03:10;3.40;;;2.33;;
67514;SDS011;60646;55.802;37.032;2023-08-30T02:05:38;3.45;;;2.65;;
67514;SDS011;60646;55.802;37.032;2023-08-30T02:08:13;3.33;;;2.35;;
67514;SDS011;60646;55.802;37.032;2023-08-30T02:10:45;3.03;;;2.22;;
67514;SDS011;60646;55.802;37.032;2023-08-30T02:13:41;4.10;;;2.63;;
67514;SDS011;60646;55.802;37.032;2023-08-30T02:16:10;3.35;;;2.53;;
67514;SDS011;60646;55.802;37.032;2023-08-30T02:18:40;3.08;;;2.28;;
67514;SDS011;60646;55.802;37.032;2023-08-30T02:21:07;3.70;;;2.63;;
67514;SDS011;60646;55.802;37.032;2023-08-30T02:23:33;5.47;;;3.03;;
67514;SDS011;60646;55.802;37.032;2023-08-30T02:25:58;4.88;;;2.95;;
67514;SDS011;60646;55.802;37.032;2023-08-30T02:28:24;4.78;;;2.90;;
67514;SDS011;60646;55.802;37.032;2023-08-30T02:30:52;4.82;;;3.22;;
67514;SDS011;60646;55.802;37.032;2023-08-30T02:33:18;6.40;;;3.95;;
67514;SDS011;60646;55.802;37.032;2023-08-30T02:35:44;4.88;;;3.30;;
67514;SDS011;60646;55.802;37.032;2023-08-30T02:38:10;5.13;;;3.50;;
67514;SDS011;60646;55.802;37.032;2023-08-30T02:40:36;6.00;;;3.47;;
67514;SDS011;60646;55.802;37.032;2023-08-30T02:43:02;4.78;;;3.42;;
67514;SDS011;60646;55.802;37.032;2023-08-30T02:45:28;5.47;;;3.58;;
67514;SDS011;60646;55.802;37.032;2023-08-30T02:47:56;4.63;;;3.13;;
67514;SDS011;60646;55.802;37.032;2023-08-30T02:50:23;6.13;;;3.58;;
67514;SDS011;60646;55.802;37.032;2023-08-30T02:52:49;4.53;;;2.72;;
67514;SDS011;60646;55.802;37.032;2023-08-30T02:55:14;4.10;;;2.58;;
67514;SDS011;60646;55.802;37.032;2023-08-30T02:57:40;4.03;;;2.75;;
67514;SDS011;60646;55.802;37.032;2023-08-30T03:00:06;4.10;;;2.80;;
67514;SDS011;60646;55.802;37.032;2023-08-30T03:02:33;4.53;;;2.58;;
67514;SDS011;60646;55.802;37.032;2023-08-30T03:04:59;4.13;;;2.92;;
67514;SDS011;60646;55.802;37.032;2023-08-30T03:07:25;5.55;;;3.80;;
67514;SDS011;60646;55.802;37.032;2023-08-30T03:09:57;4.30;;;2.80;;
67514;SDS011;60646;55.802;37.032;2023-08-30T03:12:23;4.07;;;2.90;;
67514;SDS011;60646;55.802;37.032;2023-08-30T03:14:49;3.40;;;2.47;;
67514;SDS011;60646;55.802;37.032;2023-08-30T03:17:16;4.72;;;2.95;;
67514;SDS011;60646;55.802;37.032;2023-08-30T03:19:42;4.07;;;2.85;;
67514;SDS011;60646;55.802;37.032;2023-08-30T03:22:08;4.47;;;3.00;;
67514;SDS011;60646;55.802;37.032;2023-08-30T03:24:34;4.97;;;3.17;;
67514;SDS011;60646;55.802;37.032;2023-08-30T03:27:00;4.85;;;2.67;;
67514;SDS011;60646;55.802;37.032;2023-08-30T03:29:26;5.15;;;3.10;;
67514;SDS011;60646;55.802;37.032;2023-08-30T03:31:52;6.05;;;3.08;;
67514;SDS011;60646;55.802;37.032;2023-08-30T03:34:18;6.25;;;2.97;;
67514;SDS011;60646;55.802;37.032;2023-08-30T03:36:45;6.18;;;3.60;;
67514;SDS011;60646;55.802;37.032;2023-08-30T03:39:16;5.95;;;3.80;;
67514;SDS011;60646;55.802;37.032;2023-08-30T03:41:42;5.18;;;3.22;;
67514;SDS011;60646;55.802;37.032;2023-08-30T03:44:08;6.18;;;3.42;;
67514;SDS011;60646;55.802;37.032;2023-08-30T03:46:34;4.65;;;2.97;;
67514;SDS011;60646;55.802;37.032;2023-08-30T03:49:00;6.85;;;3.80;;
67514;SDS011;60646;55.802;37.032;2023-08-30T03:51:25;6.15;;;3.50;;
67514;SDS011;60646;55.802;37.032;2023-08-30T03:53:51;7.70;;;3.85;;
67514;SDS011;60646;55.802;37.032;2023-08-30T03:56:17;7.55;;;4.13;;
67514;SDS011;60646;55.802;37.032;2023-08-30T03:58:44;6.75;;;3.55;;
67514;SDS011;60646;55.802;37.032;2023-08-30T04:01:10;4.90;;;3.33;;
67514;SDS011;60646;55.802;37.032;2023-08-30T04:03:37;6.93;;;3.33;;
67514;SDS011;60646;55.802;37.032;2023-08-30T04:06:03;4.88;;;3.10;;
67514;SDS011;60646;55.802;37.032;2023-08-30T04:08:29;5.05;;;3.35;;
67514;SDS011;60646;55.802;37.032;2023-08-30T04:10:55;5.57;;;3.67;;
67514;SDS011;60646;55.802;37.032;2023-08-30T04:13:23;4.50;;;3.15;;
67514;SDS011;60646;55.802;37.032;2023-08-30T04:15:49;5.50;;;3.22;;
67514;SDS011;60646;55.802;37.032;2023-08-30T04:18:15;4.63;;;3.10;;
67514;SDS011;60646;55.802;37.032;2023-08-30T04:20:44;6.25;;;3.83;;
67514;SDS011;60646;55.802;37.032;2023-08-30T04:23:11;5.85;;;3.15;;
67514;SDS011;60646;55.802;37.032;2023-08-30T04:25:37;5.45;;;3.33;;
67514;SDS011;60646;55.802;37.032;2023-08-30T04:28:04;5.07;;;3.42;;
67514;SDS011;60646;55.802;37.032;2023-08-30T04:30:30;5.72;;;3.60;;
67514;SDS011;60646;55.802;37.032;2023-08-30T04:32:56;6.32;;;3.20;;
67514;SDS011;60646;55.802;37.032;2023-08-30T04:35:22;5.75;;;3.40;;
67514;SDS011;60646;55.802;37.032;2023-08-30T04:37:48;4.63;;;3.00;;
67514;SDS011;60646;55.802;37.032;2023-08-30T04:40:14;5.65;;;2.97;;
67514;SDS011;60646;55.802;37.032;2023-08-30T04:42:40;5.45;;;3.17;;
67514;SDS011;60646;55.802;37.032;2023-08-30T04:45:06;4.93;;;3.13;;
67514;SDS011;60646;55.802;37.032;2023-08-30T04:47:34;4.55;;;2.95;;
67514;SDS011;60646;55.802;37.032;2023-08-30T04:50:02;5.43;;;3.47;;
67514;SDS011;60646;55.802;37.032;2023-08-30T04:52:31;12.43;;;4.65;;
67514;SDS011;60646;55.802;37.032;2023-08-30T04:54:58;8.35;;;3.47;;
67514;SDS011;60646;55.802;37.032;2023-08-30T04:57:26;5.88;;;3.38;;
67514;SDS011;60646;55.802;37.032;2023-08-30T04:59:52;8.30;;;3.70;;
67514;SDS011;60646;55.802;37.032;2023-08-30T05:02:17;6.05;;;3.10;;
67514;SDS011;60646;55.802;37.032;2023-08-30T05:05:04;9.57;;;4.03;;
67514;SDS011;60646;55.802;37.032;2023-08-30T05:07:31;7.30;;;3.20;;
67514;SDS011;60646;55.802;37.032;2023-08-30T05:09:57;6.78;;;3.28;;
67514;SDS011;60646;55.802;37.032;2023-08-30T05:12:22;7.43;;;3.22;;
67514;SDS011;60646;55.802;37.032;2023-08-30T05:14:48;4.40;;;2.83;;
67514;SDS011;60646;55.802;37.032;2023-08-30T05:17:15;8.63;;;3.60;;
67514;SDS011;60646;55.802;37.032;2023-08-30T05:19:40;9.13;;;3.60;;
67514;SDS011;60646;55.802;37.032;2023-08-30T05:22:06;8.48;;;3.75;;
67514;SDS011;60646;55.802;37.032;2023-08-30T05:24:35;7.70;;;3.45;;
67514;SDS011;60646;55.802;37.032;2023-08-30T05:27:01;5.45;;;3.35;;
67514;SDS011;60646;55.802;37.032;2023-08-30T05:29:35;5.15;;;2.55;;
67514;SDS011;60646;55.802;37.032;2023-08-30T05:32:01;5.72;;;2.30;;
67514;SDS011;60646;55.802;37.032;2023-08-30T05:34:45;4.60;;;2.67;;
67514;SDS011;60646;55.802;37.032;2023-08-30T05:37:29;7.32;;;3.17;;
67514;SDS011;60646;55.802;37.032;2023-08-30T05:40:17;7.68;;;3.47;;
67514;SDS011;60646;55.802;37.032;2023-08-30T05:42:43;4.25;;;3.10;;
67514;SDS011;60646;55.802;37.032;2023-08-30T05:45:11;4.03;;;2.70;;
67514;SDS011;60646;55.802;37.032;2023-08-30T05:47:36;6.03;;;3.35;;
67514;SDS011;60646;55.802;37.032;2023-08-30T05:50:02;3.80;;;2.55;;
67514;SDS011;60646;55.802;37.032;2023-08-30T05:52:30;3.72;;;2.35;;
67514;SDS011;60646;55.802;37.032;2023-08-30T05:54:56;4.18;;;2.25;;
67514;SDS011;60646;55.802;37.032;2023-08-30T05:57:22;4.10;;;2.30;;
67514;SDS011;60646;55.802;37.032;2023-08-30T05:59:49;4.75;;;2.80;;
67514;SDS011;60646;55.802;37.032;2023-08-30T06:02:15;3.40;;;2.10;;
67514;SDS011;60646;55.802;37.032;2023-08-30T06:04:41;3.28;;;2.17;;
67514;SDS011;60646;55.802;37.032;2023-08-30T06:07:06;3.78;;;2.40;;
67514;SDS011;60646;55.802;37.032;2023-08-30T06:09:33;4.32;;;2.30;;
67514;SDS011;60646;55.802;37.032;2023-08-30T06:11:59;3.05;;;2.30;;
67514;SDS011;60646;55.802;37.032;2023-08-30T06:14:25;4.05;;;2.50;;
67514;SDS011;60646;55.802;37.032;2023-08-30T06:16:51;3.83;;;2.60;;
67514;SDS011;60646;55.802;37.032;2023-08-30T06:19:17;3.55;;;2.25;;
67514;SDS011;60646;55.802;37.032;2023-08-30T06:21:43;4.63;;;2.50;;
67514;SDS011;60646;55.802;37.032;2023-08-30T06:24:09;4.15;;;2.63;;
67514;SDS011;60646;55.802;37.032;2023-08-30T06:26:35;4.22;;;2.38;;
67514;SDS011;60646;55.802;37.032;2023-08-30T06:29:01;4.25;;;2.63;;
67514;SDS011;60646;55.802;37.032;2023-08-30T06:31:27;4.60;;;2.80;;
67514;SDS011;60646;55.802;37.032;2023-08-30T06:33:54;5.00;;;2.92;;
67514;SDS011;60646;55.802;37.032;2023-08-30T06:36:20;4.60;;;2.50;;
67514;SDS011;60646;55.802;37.032;2023-08-30T06:38:48;6.45;;;2.47;;
67514;SDS011;60646;55.802;37.032;2023-08-30T06:41:14;2.85;;;1.95;;
67514;SDS011;60646;55.802;37.032;2023-08-30T06:43:40;3.53;;;2.10;;
67514;SDS011;60646;55.802;37.032;2023-08-30T06:46:06;3.47;;;2.20;;
67514;SDS011;60646;55.802;37.032;2023-08-30T06:48:32;3.03;;;2.33;;
67514;SDS011;60646;55.802;37.032;2023-08-30T06:50:58;3.53;;;2.60;;
67514;SDS011;60646;55.802;37.032;2023-08-30T06:53:25;3.22;;;2.17;;
67514;SDS011;60646;55.802;37.032;2023-08-30T06:55:59;3.50;;;2.33;;
67514;SDS011;60646;55.802;37.032;2023-08-30T06:58:26;3.92;;;2.25;;
67514;SDS011;60646;55.802;37.032;2023-08-30T07:00:52;2.70;;;2.08;;
67514;SDS011;60646;55.802;37.032;2023-08-30T07:03:18;3.20;;;2.10;;
67514;SDS011;60646;55.802;37.032;2023-08-30T07:05:44;4.22;;;2.30;;
67514;SDS011;60646;55.802;37.032;2023-08-30T07:08:13;3.55;;;1.85;;
67514;SDS011;60646;55.802;37.032;2023-08-30T07:10:40;3.95;;;1.83;;
67514;SDS011;60646;55.802;37.032;2023-08-30T07:13:05;4.22;;;2.20;;
67514;SDS011;60646;55.802;37.032;2023-08-30T07:15:39;2.35;;;1.55;;
67514;SDS011;60646;55.802;37.032;2023-08-30T07:18:06;5.18;;;2.65;;
67514;SDS011;60646;55.802;37.032;2023-08-30T07:20:35;4.03;;;2.42;;
67514;SDS011;60646;55.802;37.032;2023-08-30T07:23:02;4.47;;;2.42;;
67514;SDS011;60646;55.802;37.032;2023-08-30T07:25:31;4.72;;;2.45;;
67514;SDS011;60646;55.802;37.032;2023-08-30T07:28:02;2.97;;;1.85;;
67514;SDS011;60646;55.802;37.032;2023-08-30T07:30:28;2.67;;;1.85;;
67514;SDS011;60646;55.802;37.032;2023-08-30T07:32:54;3.33;;;1.77;;
67514;SDS011;60646;55.802;37.032;2023-08-30T07:35:20;2.08;;;1.70;;
67514;SDS011;60646;55.802;37.032;2023-08-30T07:37:46;2.75;;;1.55;;
67514;SDS011;60646;55.802;37.032;2023-08-30T07:40:12;3.58;;;2.05;;
67514;SDS011;60646;55.802;37.032;2023-08-30T07:42:38;2.35;;;1.75;;
67514;SDS011;60646;55.802;37.032;2023-08-30T07:45:04;2.97;;;1.88;;
67514;SDS011;60646;55.802;37.032;2023-08-30T07:47:33;1.90;;;1.58;;
67514;SDS011;60646;55.802;37.032;2023-08-30T07:49:58;2.95;;;1.85;;
67514;SDS011;60646;55.802;37.032;2023-08-30T07:52:24;2.35;;;1.70;;
67514;SDS011;60646;55.802;37.032;2023-08-30T07:54:50;1.77;;;1.40;;
67514;SDS011;60646;55.802;37.032;2023-08-30T07:57:16;2.03;;;1.35;;
67514;SDS011;60646;55.802;37.032;2023-08-30T07:59:41;1.63;;;1.42;;
67514;SDS011;60646;55.802;37.032;2023-08-30T08:02:07;2.72;;;1.58;;
67514;SDS011;60646;55.802;37.032;2023-08-30T08:04:33;2.10;;;1.75;;
67514;SDS011;60646;55.802;37.032;2023-08-30T08:07:00;2.50;;;1.40;;
67514;SDS011;60646;55.802;37.032;2023-08-30T08:09:26;2.75;;;1.50;;
67514;SDS011;60646;55.802;37.032;2023-08-30T08:11:53;2.00;;;1.40;;
67514;SDS011;60646;55.802;37.032;2023-08-30T08:14:19;2.17;;;1.60;;
67514;SDS011;60646;55.802;37.032;2023-08-30T08:16:44;1.90;;;1.52;;
67514;SDS011;60646;55.802;37.032;2023-08-30T08:19:13;1.88;;;1.35;;
67514;SDS011;60646;55.802;37.032;2023-08-30T08:21:43;1.83;;;1.50;;
67514;SDS011;60646;55.802;37.032;2023-08-30T08:24:14;1.98;;;1.38;;
67514;SDS011;60646;55.802;37.032;2023-08-30T08:26:43;2.50;;;1.50;;
67514;SDS011;60646;55.802;37.032;2023-08-30T08:29:09;2.22;;;1.55;;
67514;SDS011;60646;55.802;37.032;2023-08-30T08:31:34;1.50;;;1.30;;
67514;SDS011;60646;55.802;37.032;2023-08-30T08:34:10;2.47;;;1.67;;
67514;SDS011;60646;55.802;37.032;2023-08-30T08:36:55;1.92;;;1.45;;
67514;SDS011;60646;55.802;37.032;2023-08-30T08:39:21;2.33;;;1.60;;
67514;SDS011;60646;55.802;37.032;2023-08-30T08:41:51;4.57;;;1.95;;
67514;SDS011;60646;55.802;37.032;2023-08-30T08:44:20;2.03;;;1.48;;
67514;SDS011;60646;55.802;37.032;2023-08-30T08:46:48;1.88;;;1.35;;
67514;SDS011;60646;55.802;37.032;2023-08-30T08:49:19;1.80;;;1.40;;
67514;SDS011;60646;55.802;37.032;2023-08-30T08:51:48;1.80;;;1.40;;
67514;SDS011;60646;55.802;37.032;2023-08-30T08:54:14;3.50;;;1.38;;
67514;SDS011;60646;55.802;37.032;2023-08-30T08:56:42;3.65;;;1.50;;
67514;SDS011;60646;55.802;37.032;2023-08-30T08:59:09;1.40;;;1.27;;
67514;SDS011;60646;55.802;37.032;2023-08-30T09:01:35;1.65;;;1.15;;
67514;SDS011;60646;55.802;37.032;2023-08-30T09:04:05;2.50;;;1.50;;
67514;SDS011;60646;55.802;37.032;2023-08-30T09:06:36;2.45;;;1.70;;
67514;SDS011;60646;55.802;37.032;2023-08-30T09:09:03;4.65;;;1.60;;
67514;SDS011;60646;55.802;37.032;2023-08-30T09:11:33;2.35;;;1.35;;
67514;SDS011;60646;55.802;37.032;2023-08-30T09:13:59;2.08;;;1.55;;
67514;SDS011;60646;55.802;37.032;2023-08-30T09:16:25;2.08;;;1.30;;
67514;SDS011;60646;55.802;37.032;2023-08-30T09:19:01;1.98;;;1.40;;
67514;SDS011;60646;55.802;37.032;2023-08-30T09:21:29;3.05;;;1.73;;
67514;SDS011;60646;55.802;37.032;2023-08-30T09:24:00;2.35;;;1.48;;
67514;SDS011;60646;55.802;37.032;2023-08-30T09:26:29;4.50;;;1.70;;
67514;SDS011;60646;55.802;37.032;2023-08-30T09:29:22;2.40;;;1.63;;
67514;SDS011;60646;55.802;37.032;2023-08-30T09:31:52;2.78;;;1.75;;
67514;SDS011;60646;55.802;37.032;2023-08-30T09:34:24;2.50;;;1.40;;
67514;SDS011;60646;55.802;37.032;2023-08-30T09:36:51;3.70;;;1.38;;
67514;SDS011;60646;55.802;37.032;2023-08-30T09:39:17;1.88;;;1.42;;
67514;SDS011;60646;55.802;37.032;2023-08-30T09:41:44;2.20;;;1.60;;
67514;SDS011;60646;55.802;37.032;2023-08-30T09:44:15;1.85;;;1.40;;
67514;SDS011;60646;55.802;37.032;2023-08-30T09:49:10;2.72;;;1.67;;
67514;SDS011;60646;55.802;37.032;2023-08-30T09:51:40;2.50;;;1.70;;
67514;SDS011;60646;55.802;37.032;2023-08-30T09:54:13;2.38;;;1.65;;
67514;SDS011;60646;55.802;37.032;2023-08-30T09:56:44;1.98;;;1.75;;
67514;SDS011;60646;55.802;37.032;2023-08-30T09:59:12;1.92;;;1.50;;
67514;SDS011;60646;55.802;37.032;2023-08-30T10:01:41;1.80;;;1.48;;
67514;SDS011;60646;55.802;37.032;2023-08-30T10:04:09;3.97;;;1.67;;
67514;SDS011;60646;55.802;37.032;2023-08-30T10:06:37;2.08;;;1.63;;
67514;SDS011;60646;55.802;37.032;2023-08-30T10:09:04;2.08;;;1.55;;
67514;SDS011;60646;55.802;37.032;2023-08-30T10:11:35;1.77;;;1.40;;
67514;SDS011;60646;55.802;37.032;2023-08-30T10:14:03;1.70;;;1.33;;
67514;SDS011;60646;55.802;37.032;2023-08-30T10:16:42;1.60;;;1.50;;
67514;SDS011;60646;55.802;37.032;2023-08-30T10:22:04;2.10;;;1.45;;
67514;SDS011;60646;55.802;37.032;2023-08-30T10:24:39;2.42;;;1.48;;
67514;SDS011;60646;55.802;37.032;2023-08-30T10:27:08;2.40;;;1.35;;
67514;SDS011;60646;55.802;37.032;2023-08-30T10:29:35;2.72;;;2.10;;
67514;SDS011;60646;55.802;37.032;2023-08-30T10:32:04;2.75;;;1.80;;
67514;SDS011;60646;55.802;37.032;2023-08-30T10:34:31;4.63;;;1.55;;
67514;SDS011;60646;55.802;37.032;2023-08-30T10:37:00;1.88;;;1.55;;
67514;SDS011;60646;55.802;37.032;2023-08-30T10:39:32;2.28;;;1.63;;
67514;SDS011;60646;55.802;37.032;2023-08-30T10:42:00;2.45;;;1.80;;
67514;SDS011;60646;55.802;37.032;2023-08-30T10:44:26;2.00;;;1.40;;
67514;SDS011;60646;55.802;37.032;2023-08-30T10:46:55;1.50;;;1.30;;
67514;SDS011;60646;55.802;37.032;2023-08-30T10:49:21;2.00;;;1.50;;
67514;SDS011;60646;55.802;37.032;2023-08-30T10:51:57;2.92;;;1.45;;
67514;SDS011;60646;55.802;37.032;2023-08-30T10:54:24;2.28;;;1.38;;
67514;SDS011;60646;55.802;37.032;2023-08-30T10:59:19;2.35;;;1.80;;
67514;SDS011;60646;55.802;37.032;2023-08-30T11:01:51;1.90;;;1.38;;
67514;SDS011;60646;55.802;37.032;2023-08-30T11:04:29;3.53;;;1.70;;
67514;SDS011;60646;55.802;37.032;2023-08-30T11:06:57;4.20;;;1.70;;
67514;SDS011;60646;55.802;37.032;2023-08-30T11:09:23;1.85;;;1.40;;
67514;SDS011;60646;55.802;37.032;2023-08-30T11:11:50;1.58;;;1.30;;
67514;SDS011;60646;55.802;37.032;2023-08-30T11:14:17;1.80;;;1.35;;
67514;SDS011;60646;55.802;37.032;2023-08-30T11:16:44;3.70;;;1.33;;
67514;SDS011;60646;55.802;37.032;2023-08-30T11:19:12;1.92;;;1.45;;
67514;SDS011;60646;55.802;37.032;2023-08-30T11:21:43;1.83;;;1.20;;
67514;SDS011;60646;55.802;37.032;2023-08-30T11:24:28;2.42;;;1.45;;
67514;SDS011;60646;55.802;37.032;2023-08-30T11:26:54;1.60;;;1.48;;
67514;SDS011;60646;55.802;37.032;2023-08-30T11:29:23;2.22;;;1.55;;
67514;SDS011;60646;55.802;37.032;2023-08-30T11:31:52;2.45;;;1.40;;
67514;SDS011;60646;55.802;37.032;2023-08-30T11:34:20;2.50;;;1.50;;
67514;SDS011;60646;55.802;37.032;2023-08-30T11:36:47;2.50;;;1.70;;
67514;SDS011;60646;55.802;37.032;2023-08-30T11:39:15;2.28;;;1.65;;
67514;SDS011;60646;55.802;37.032;2023-08-30T11:41:44;2.42;;;1.40;;
67514;SDS011;60646;55.802;37.032;2023-08-30T11:44:18;1.83;;;1.20;;
67514;SDS011;60646;55.802;37.032;2023-08-30T11:46:44;1.48;;;1.38;;
67514;SDS011;60646;55.802;37.032;2023-08-30T11:49:11;1.63;;;1.23;;
67514;SDS011;60646;55.802;37.032;2023-08-30T11:51:38;1.80;;;1.33;;
67514;SDS011;60646;55.802;37.032;2023-08-30T11:54:04;2.03;;;1.55;;
67514;SDS011;60646;55.802;37.032;2023-08-30T11:56:31;1.77;;;1.40;;
67514;SDS011;60646;55.802;37.032;2023-08-30T11:58:57;1.73;;;1.30;;
67514;SDS011;60646;55.802;37.032;2023-08-30T12:01:23;1.67;;;1.17;;
67514;SDS011;60646;55.802;37.032;2023-08-30T12:06:41;1.63;;;1.35;;
67514;SDS011;60646;55.802;37.032;2023-08-30T12:09:11;1.60;;;1.20;;
67514;SDS011;60646;55.802;37.032;2023-08-30T12:11:37;2.10;;;1.73;;
67514;SDS011;60646;55.802;37.032;2023-08-30T12:14:03;3.25;;;1.30;;
67514;SDS011;60646;55.802;37.032;2023-08-30T12:16:30;2.55;;;1.52;;
67514;SDS011;60646;55.802;37.032;2023-08-30T12:18:55;1.65;;;1.27;;
67514;SDS011;60646;55.802;37.032;2023-08-30T12:21:21;1.98;;;1.50;;
67514;SDS011;60646;55.802;37.032;2023-08-30T12:23:47;1.77;;;1.30;;
67514;SDS011;60646;55.802;37.032;2023-08-30T12:26:13;1.67;;;1.27;;
67514;SDS011;60646;55.802;37.032;2023-08-30T12:28:40;2.25;;;1.38;;
67514;SDS011;60646;55.802;37.032;2023-08-30T12:31:10;1.27;;;1.17;;
67514;SDS011;60646;55.802;37.032;2023-08-30T12:33:37;1.75;;;1.35;;
67514;SDS011;60646;55.802;37.032;2023-08-30T12:36:06;1.75;;;1.30;;
67514;SDS011;60646;55.802;37.032;2023-08-30T12:38:33;2.25;;;1.70;;
67514;SDS011;60646;55.802;37.032;2023-08-30T12:40:59;3.58;;;1.30;;
67514;SDS011;60646;55.802;37.032;2023-08-30T12:43:24;2.17;;;1.45;;
67514;SDS011;60646;55.802;37.032;2023-08-30T12:45:52;2.67;;;1.80;;
67514;SDS011;60646;55.802;37.032;2023-08-30T12:48:18;3.78;;;1.42;;
67514;SDS011;60646;55.802;37.032;2023-08-30T12:50:45;5.32;;;1.50;;
67514;SDS011;60646;55.802;37.032;2023-08-30T12:53:12;2.25;;;1.60;;
67514;SDS011;60646;55.802;37.032;2023-08-30T12:55:38;1.42;;;1.30;;
67514;SDS011;60646;55.802;37.032;2023-08-30T12:58:07;2.65;;;1.95;;
67514;SDS011;60646;55.802;37.032;2023-08-30T13:00:35;2.33;;;1.77;;
67514;SDS011;60646;55.802;37.032;2023-08-30T13:03:01;2.35;;;1.40;;
67514;SDS011;60646;55.802;37.032;2023-08-30T13:05:29;2.38;;;1.50;;
67514;SDS011;60646;55.802;37.032;2023-08-30T13:08:00;2.53;;;1.90;;
67514;SDS011;60646;55.802;37.032;2023-08-30T13:10:26;2.35;;;1.58;;
67514;SDS011;60646;55.802;37.032;2023-08-30T13:12:52;1.75;;;1.50;;
67514;SDS011;60646;55.802;37.032;2023-08-30T13:15:18;2.70;;;1.67;;
67514;SDS011;60646;55.802;37.032;2023-08-30T13:17:44;2.75;;;1.80;;
67514;SDS011;60646;55.802;37.032;2023-08-30T13:20:10;2.03;;;1.50;;
67514;SDS011;60646;55.802;37.032;2023-08-30T13:22:36;2.80;;;1.80;;
67514;SDS011;60646;55.802;37.032;2023-08-30T13:25:02;2.97;;;1.60;;
67514;SDS011;60646;55.802;37.032;2023-08-30T13:27:30;2.55;;;1.63;;
67514;SDS011;60646;55.802;37.032;2023-08-30T13:29:56;1.60;;;1.35;;
67514;SDS011;60646;55.802;37.032;2023-08-30T13:32:22;2.22;;;1.70;;
67514;SDS011;60646;55.802;37.032;2023-08-30T13:34:49;2.28;;;1.70;;
67514;SDS011;60646;55.802;37.032;2023-08-30T13:37:17;2.20;;;1.73;;
67514;SDS011;60646;55.802;37.032;2023-08-30T13:39:43;2.28;;;1.45;;
67514;SDS011;60646;55.802;37.032;2023-08-30T13:42:09;2.70;;;1.88;;
67514;SDS011;60646;55.802;37.032;2023-08-30T13:44:36;2.83;;;1.75;;
67514;SDS011;60646;55.802;37.032;2023-08-30T13:47:06;2.78;;;1.70;;
67514;SDS011;60646;55.802;37.032;2023-08-30T13:49:32;2.17;;;1.55;;
67514;SDS011;60646;55.802;37.032;2023-08-30T13:51:58;3.50;;;2.05;;
67514;SDS011;60646;55.802;37.032;2023-08-30T13:54:24;2.67;;;1.65;;
67514;SDS011;60646;55.802;37.032;2023-08-30T13:56:52;3.55;;;1.67;;
67514;SDS011;60646;55.802;37.032;2023-08-30T13:59:18;1.98;;;1.63;;
67514;SDS011;60646;55.802;37.032;2023-08-30T14:01:45;2.20;;;1.48;;
67514;SDS011;60646;55.802;37.032;2023-08-30T14:04:12;4.45;;;1.70;;
67514;SDS011;60646;55.802;37.032;2023-08-30T14:06:38;2.08;;;1.55;;
67514;SDS011;60646;55.802;37.032;2023-08-30T14:09:04;2.38;;;1.55;;
67514;SDS011;60646;55.802;37.032;2023-08-30T14:11:31;2.42;;;1.58;;
67514;SDS011;60646;55.802;37.032;2023-08-30T14:13:57;4.18;;;1.60;;
67514;SDS011;60646;55.802;37.032;2023-08-30T14:16:22;2.53;;;1.90;;
67514;SDS011;60646;55.802;37.032;2023-08-30T14:18:49;2.30;;;1.80;;
67514;SDS011;60646;55.802;37.032;2023-08-30T14:21:15;2.78;;;1.52;;
67514;SDS011;60646;55.802;37.032;2023-08-30T14:23:40;5.18;;;1.80;;
67514;SDS011;60646;55.802;37.032;2023-08-30T14:26:06;2.42;;;1.48;;
67514;SDS011;60646;55.802;37.032;2023-08-30T14:28:36;4.38;;;1.80;;
67514;SDS011;60646;55.802;37.032;2023-08-30T14:31:03;3.22;;;1.67;;
67514;SDS011;60646;55.802;37.032;2023-08-30T14:33:31;2.22;;;1.40;;
67514;SDS011;60646;55.802;37.032;2023-08-30T14:35:59;2.65;;;1.50;;
67514;SDS011;60646;55.802;37.032;2023-08-30T14:41:20;1.50;;;1.40;;
67514;SDS011;60646;55.802;37.032;2023-08-30T14:43:46;1.60;;;1.20;;
67514;SDS011;60646;55.802;37.032;2023-08-30T14:46:12;1.58;;;1.48;;
67514;SDS011;60646;55.802;37.032;2023-08-30T14:48:39;2.75;;;1.52;;
67514;SDS011;60646;55.802;37.032;2023-08-30T14:51:05;1.88;;;1.48;;
67514;SDS011;60646;55.802;37.032;2023-08-30T14:53:51;2.70;;;1.67;;
67514;SDS011;60646;55.802;37.032;2023-08-30T14:56:17;2.50;;;1.50;;